Time;durP1;ratioP1;P1;durP2;ratioP2;P2;SDS_P1;SDS_P2;PMS_P1;PMS_P2;Temp;Humidity;BMP_temperature;BMP_pressure;BME280_temperature;BME280_humidity;BME280_pressure;Samples;Min_cycle;Max_cycle;Signal;HPM_P1;HPM_P2
2022/04/03 00:02:24;;;;;;;4.07;1.52;;;;;;;;;;10491319;28;20100;-74
2022/04/03 00:07:24;;;;;;;2.13;1.80;;;;;;;;;;10489774;28;20555;-71
2022/04/03 00:12:24;;;;;;;2.45;2.17;;;;;;;;;;10489275;28;20434;-73
2022/04/03 00:17:25;;;;;;;3.70;2.33;;;;;;;;;;10490733;28;20029;-72
2022/04/03 00:22:25;;;;;;;3.15;2.45;;;;;;;;;;10489056;28;20035;-72
2022/04/03 00:27:25;;;;;;;2.53;2.17;;;;;;;;;;10490154;28;20032;-71
2022/04/03 00:32:26;;;;;;;2.33;1.73;;;;;;;;;;10488668;28;20116;-70
2022/04/03 00:37:26;;;;;;;2.35;1.55;;;;;;;;;;10488486;28;20804;-71
2022/04/03 00:42:27;;;;;;;1.52;1.40;;;;;;;;;;10471258;28;20036;-71
2022/04/03 00:47:27;;;;;;;1.95;1.30;;;;;;;;;;10487728;28;20422;-74
2022/04/03 00:52:28;;;;;;;1.30;1.20;;;;;;;;;;10487847;28;20060;-71
2022/04/03 00:57:28;;;;;;;4.30;1.33;;;;;;;;;;10489062;28;20024;-70
2022/04/03 01:02:30;;;;;;;1.73;1.60;;;;;;;;;;10487331;28;20398;-76
2022/04/03 01:07:31;;;;;;;3.08;2.05;;;;;;;;;;10487513;28;20036;-68
2022/04/03 01:12:31;;;;;;;4.20;2.40;;;;;;;;;;10487315;28;20025;-69
2022/04/03 01:17:31;;;;;;;2.90;2.10;;;;;;;;;;10487345;28;20039;-70
2022/04/03 01:22:32;;;;;;;6.10;3.20;;;;;;;;;;10486997;28;20012;-70
2022/04/03 01:27:32;;;;;;;5.05;2.67;;;;;;;;;;10486810;28;20024;-74
2022/04/03 01:32:33;;;;;;;1.50;1.25;;;;;;;;;;10486426;28;20044;-71
2022/04/03 01:37:33;;;;;;;7.70;2.83;;;;;;;;;;10488123;28;20020;-69
2022/04/03 01:42:33;;;;;;;5.82;1.77;;;;;;;;;;10470023;28;20024;-74
2022/04/03 01:47:34;;;;;;;2.45;1.48;;;;;;;;;;10486336;28;20049;-70
2022/04/03 01:52:34;;;;;;;7.28;1.00;;;;;;;;;;10486753;28;20508;-71
2022/04/03 01:57:35;;;;;;;3.70;1.50;;;;;;;;;;10494886;28;20051;-71
2022/04/03 02:02:36;;;;;;;8.95;1.58;;;;;;;;;;10494883;28;20093;-71
2022/04/03 02:07:36;;;;;;;2.90;1.40;;;;;;;;;;10495728;28;20028;-70
2022/04/03 02:12:36;;;;;;;3.42;2.67;;;;;;;;;;10494418;28;20040;-77
2022/04/03 02:17:37;;;;;;;4.00;1.43;;;;;;;;;;10494283;28;20135;-72
2022/04/03 02:22:37;;;;;;;1.80;1.20;;;;;;;;;;10493855;28;20111;-70
2022/04/03 02:27:38;;;;;;;3.10;1.87;;;;;;;;;;10494990;28;20052;-75
2022/04/03 02:32:40;;;;;;;9.85;1.92;;;;;;;;;;10493420;28;20319;-71
2022/04/03 02:37:41;;;;;;;3.03;1.27;;;;;;;;;;10476303;28;20029;-75
2022/04/03 02:42:41;;;;;;;4.25;1.45;;;;;;;;;;10476787;28;20028;-74
2022/04/03 02:47:47;;;;;;;3.33;0.90;;;;;;;;;;10492661;28;20052;-74
2022/04/03 02:52:48;;;;;;;4.53;1.45;;;;;;;;;;10492583;28;20032;-70
2022/04/03 02:57:48;;;;;;;5.68;1.10;;;;;;;;;;10492472;28;20402;-76
2022/04/03 03:02:49;;;;;;;3.63;1.40;;;;;;;;;;10493979;28;20020;-71
2022/04/03 03:07:50;;;;;;;3.28;1.70;;;;;;;;;;10492980;28;20494;-76
2022/04/03 03:12:50;;;;;;;2.87;1.30;;;;;;;;;;10492087;28;20555;-73
2022/04/03 03:17:51;;;;;;;4.35;1.83;;;;;;;;;;10492037;28;20131;-76
2022/04/03 03:22:51;;;;;;;1.43;1.17;;;;;;;;;;10493138;28;20546;-70
2022/04/03 03:27:51;;;;;;;3.60;1.50;;;;;;;;;;10492867;28;20559;-76
2022/04/03 03:32:51;;;;;;;3.17;1.52;;;;;;;;;;10491581;28;20024;-76
2022/04/03 03:37:52;;;;;;;3.30;1.90;;;;;;;;;;10490749;28;20028;-70
2022/04/03 03:42:52;;;;;;;2.58;1.52;;;;;;;;;;10490780;28;20024;-75
2022/04/03 03:47:54;;;;;;;7.93;1.88;;;;;;;;;;10490198;28;20059;-76
2022/04/03 03:52:55;;;;;;;5.20;1.95;;;;;;;;;;10490029;28;20123;-71
2022/04/03 03:57:55;;;;;;;7.53;1.60;;;;;;;;;;10490145;28;20039;-71
2022/04/03 04:02:56;;;;;;;6.22;2.05;;;;;;;;;;10491110;28;20384;-70
2022/04/03 04:07:56;;;;;;;3.95;1.52;;;;;;;;;;10489681;28;20410;-71
2022/04/03 04:12:57;;;;;;;4.18;2.20;;;;;;;;;;10489448;28;20517;-71
2022/04/03 04:17:57;;;;;;;8.93;2.75;;;;;;;;;;10488206;28;20074;-69
2022/04/03 04:22:57;;;;;;;8.10;3.40;;;;;;;;;;10488992;28;20064;-70
2022/04/03 04:28:00;;;;;;;10.07;3.40;;;;;;;;;;10488828;28;20021;-69
2022/04/03 04:33:00;;;;;;;6.68;3.42;;;;;;;;;;10488684;28;20036;-70
2022/04/03 04:38:01;;;;;;;6.75;3.75;;;;;;;;;;10488328;28;20036;-71
2022/04/03 04:43:01;;;;;;;8.13;3.95;;;;;;;;;;10488073;28;20021;-70
2022/04/03 04:48:01;;;;;;;18.55;4.38;;;;;;;;;;10489200;28;20433;-73
2022/04/03 04:53:02;;;;;;;5.68;3.17;;;;;;;;;;10488983;28;20718;-70
2022/04/03 04:58:02;;;;;;;6.10;3.38;;;;;;;;;;10470419;28;20120;-74
2022/04/03 05:03:02;;;;;;;9.30;3.10;;;;;;;;;;10487406;28;20054;-69
2022/04/03 05:08:03;;;;;;;6.43;4.38;;;;;;;;;;10487404;28;20637;-72
2022/04/03 05:13:06;;;;;;;6.65;2.60;;;;;;;;;;10486969;28;20040;-70
2022/04/03 05:18:07;;;;;;;4.22;2.90;;;;;;;;;;10487143;28;20082;-70
2022/04/03 05:23:07;;;;;;;4.97;2.90;;;;;;;;;;10487229;28;20082;-72
2022/04/03 05:28:08;;;;;;;4.50;2.97;;;;;;;;;;10486539;28;20033;-73
2022/04/03 05:33:09;;;;;;;5.93;2.75;;;;;;;;;;10512152;28;20081;-70
2022/04/03 05:38:09;;;;;;;4.50;2.77;;;;;;;;;;10528333;28;20024;-72
2022/04/03 05:43:10;;;;;;;5.18;3.80;;;;;;;;;;10498655;28;20025;-76
2022/04/03 05:48:10;;;;;;;4.90;3.38;;;;;;;;;;10523139;28;20055;-71
2022/04/03 05:53:10;;;;;;;6.15;3.50;;;;;;;;;;10487764;28;20089;-71
2022/04/03 05:58:11;;;;;;;8.57;2.70;;;;;;;;;;10486473;28;20029;-72
2022/04/03 06:03:11;;;;;;;1.65;0.93;;;;;;;;;;10486192;28;20480;-71
2022/04/03 06:08:13;;;;;;;0.40;0.30;;;;;;;;;;10518987;28;20608;-70
2022/04/03 06:13:13;;;;;;;0.40;0.30;;;;;;;;;;10528730;28;20417;-70
2022/04/03 06:18:15;;;;;;;2.15;0.32;;;;;;;;;;10527093;28;20032;-71
2022/04/03 06:23:16;;;;;;;0.95;0.30;;;;;;;;;;10527369;28;20024;-71
2022/04/03 06:28:16;;;;;;;1.35;0.32;;;;;;;;;;10520468;28;20031;-69
2022/04/03 06:33:17;;;;;;;1.70;0.50;;;;;;;;;;10498647;28;20379;-68
2022/04/03 06:38:18;;;;;;;1.73;0.28;;;;;;;;;;10510322;28;20027;-74
2022/04/03 06:43:19;;;;;;;0.50;0.40;;;;;;;;;;10534412;28;20030;-72
2022/04/03 06:48:19;;;;;;;0.43;0.43;;;;;;;;;;10534507;28;20056;-70
2022/04/03 06:53:20;;;;;;;3.75;0.80;;;;;;;;;;10535912;28;20036;-69
2022/04/03 06:58:20;;;;;;;0.60;0.23;;;;;;;;;;10525901;28;20033;-73
2022/04/03 07:03:20;;;;;;;1.20;0.45;;;;;;;;;;10491901;28;20021;-75
2022/04/03 07:08:21;;;;;;;1.00;0.40;;;;;;;;;;10492119;28;20024;-71
2022/04/03 07:13:21;;;;;;;1.80;0.50;;;;;;;;;;10491839;28;20032;-70
2022/04/03 07:18:22;;;;;;;0.40;0.32;;;;;;;;;;10491412;28;20025;-69
2022/04/03 07:23:24;;;;;;;0.40;0.20;;;;;;;;;;10491499;28;20020;-72
2022/04/03 07:28:24;;;;;;;1.23;0.60;;;;;;;;;;10474713;28;20559;-74
2022/04/03 07:33:25;;;;;;;0.68;0.65;;;;;;;;;;10490585;28;20077;-73
2022/04/03 07:38:26;;;;;;;0.77;0.60;;;;;;;;;;10490737;28;20066;-69
2022/04/03 07:43:27;;;;;;;2.63;0.90;;;;;;;;;;10490755;28;20044;-72
2022/04/03 07:48:27;;;;;;;0.60;0.55;;;;;;;;;;10489857;28;20173;-70
2022/04/03 07:53:27;;;;;;;1.63;0.32;;;;;;;;;;10489198;28;20102;-72
2022/04/03 07:58:28;;;;;;;0.93;0.65;;;;;;;;;;10490507;28;20028;-69
2022/04/03 08:03:28;;;;;;;1.92;0.68;;;;;;;;;;10489686;28;20684;-70
2022/04/03 08:08:28;;;;;;;3.47;0.47;;;;;;;;;;10489486;28;20421;-72
2022/04/03 08:13:28;;;;;;;1.55;0.52;;;;;;;;;;10489427;28;20594;-71
2022/04/03 08:18:29;;;;;;;1.45;0.32;;;;;;;;;;10488839;28;20479;-70
2022/04/03 08:23:29;;;;;;;3.92;0.50;;;;;;;;;;10488305;28;20131;-70
2022/04/03 08:28:31;;;;;;;0.38;0.38;;;;;;;;;;10488975;28;20028;-74
2022/04/03 08:33:32;;;;;;;0.55;0.30;;;;;;;;;;10490221;28;20024;-71
2022/04/03 08:38:32;;;;;;;1.77;0.30;;;;;;;;;;10488353;28;20506;-74
2022/04/03 08:43:32;;;;;;;0.85;0.40;;;;;;;;;;10491756;28;20027;-71
2022/04/03 08:48:33;;;;;;;0.77;0.30;;;;;;;;;;10487923;28;20071;-74
2022/04/03 08:53:35;;;;;;;0.85;0.30;;;;;;;;;;10487216;28;20032;-71
2022/04/03 08:58:35;;;;;;;0.35;0.30;;;;;;;;;;10489224;28;20514;-70
2022/04/03 09:03:36;;;;;;;1.50;0.55;;;;;;;;;;10488058;28;20029;-73
2022/04/03 09:08:40;;;;;;;1.25;0.52;;;;;;;;;;10487016;28;20024;-72
2022/04/03 09:13:41;;;;;;;0.30;0.25;;;;;;;;;;10487029;28;20480;-70
2022/04/03 09:18:42;;;;;;;0.68;0.50;;;;;;;;;;10516367;28;20082;-74
2022/04/03 09:23:59;;;;;;;2.08;0.40;;;;;;;;;;10493257;28;20110;-73
2022/04/03 09:29:15;;;;;;;1.00;0.45;;;;;;;;;;10484732;28;20017;-75
2022/04/03 09:34:17;;;;;;;0.73;0.30;;;;;;;;;;10517862;28;20031;-70
2022/04/03 09:39:24;;;;;;;0.57;0.35;;;;;;;;;;10498322;28;20024;-70
2022/04/03 09:44:44;;;;;;;6.70;0.57;;;;;;;;;;10489169;28;20119;-70
2022/04/03 09:49:49;;;;;;;2.67;1.17;;;;;;;;;;10510047;28;20024;-73
2022/04/03 09:54:49;;;;;;;1.75;1.08;;;;;;;;;;10509145;28;20051;-71
2022/04/03 09:59:50;;;;;;;1.20;1.00;;;;;;;;;;10508920;28;20214;-75
2022/04/03 10:04:53;;;;;;;1.67;0.93;;;;;;;;;;10510908;28;20470;-75
2022/04/03 10:09:53;;;;;;;2.45;0.60;;;;;;;;;;10519918;28;20020;-76
2022/04/03 10:14:54;;;;;;;4.50;1.30;;;;;;;;;;10518206;28;20684;-74
2022/04/03 10:19:54;;;;;;;0.93;0.60;;;;;;;;;;10493023;28;20024;-74
2022/04/03 10:24:59;;;;;;;0.47;0.10;;;;;;;;;;10494286;28;20016;-74
2022/04/03 10:30:00;;;;;;;2.08;0.63;;;;;;;;;;10490670;28;20398;-72
2022/04/03 10:35:05;;;;;;;3.08;0.98;;;;;;;;;;10494048;28;20016;-69
2022/04/03 10:40:16;;;;;;;2.33;1.00;;;;;;;;;;10493952;28;20056;-76
2022/04/03 10:45:18;;;;;;;2.03;1.08;;;;;;;;;;10505355;28;20119;-73
2022/04/03 10:50:18;;;;;;;3.20;1.55;;;;;;;;;;10552078;28;20485;-70
2022/04/03 10:55:29;;;;;;;2.20;1.10;;;;;;;;;;10550321;28;20024;-73
2022/04/03 11:00:29;;;;;;;1.67;1.25;;;;;;;;;;10549858;28;20266;-73
2022/04/03 11:05:29;;;;;;;2.00;0.93;;;;;;;;;;10517935;28;20486;-73
2022/04/03 11:10:48;;;;;;;4.22;1.13;;;;;;;;;;10506729;28;20512;-74
2022/04/03 11:15:48;;;;;;;2.00;1.20;;;;;;;;;;10519680;28;20021;-75
2022/04/03 11:21:03;;;;;;;5.90;2.25;;;;;;;;;;10489941;28;20020;-71
2022/04/03 11:26:04;;;;;;;4.72;2.20;;;;;;;;;;10506799;28;20107;-73
2022/04/03 11:31:05;;;;;;;2.33;1.80;;;;;;;;;;10497831;28;20020;-74
2022/04/03 11:36:06;;;;;;;3.17;1.52;;;;;;;;;;10511516;28;20016;-76
2022/04/03 11:41:10;;;;;;;2.67;2.15;;;;;;;;;;10500632;28;20026;-73
2022/04/03 11:46:10;;;;;;;4.22;2.80;;;;;;;;;;10532420;28;20044;-74
2022/04/03 11:51:12;;;;;;;3.35;1.95;;;;;;;;;;10532532;28;20109;-72
2022/04/03 11:56:16;;;;;;;6.90;2.97;;;;;;;;;;10510272;28;20058;-71
2022/04/03 12:01:27;;;;;;;3.65;2.42;;;;;;;;;;10518362;28;20622;-73
2022/04/03 12:06:29;;;;;;;4.93;3.13;;;;;;;;;;10528372;28;20024;-71
2022/04/03 12:11:30;;;;;;;3.90;2.45;;;;;;;;;;10530456;28;20026;-71
2022/04/03 12:16:34;;;;;;;5.15;2.40;;;;;;;;;;10530702;28;20034;-71
2022/04/03 12:21:51;;;;;;;4.93;3.25;;;;;;;;;;10529127;28;20020;-71
2022/04/03 12:26:52;;;;;;;6.38;4.10;;;;;;;;;;10530201;28;20405;-72
2022/04/03 12:31:56;;;;;;;4.18;3.30;;;;;;;;;;10529760;28;20477;-70
2022/04/03 12:36:58;;;;;;;7.00;3.75;;;;;;;;;;10515759;28;20054;-73
2022/04/03 12:42:19;;;;;;;10.77;3.55;;;;;;;;;;10505412;28;20017;-71
2022/04/03 12:47:22;;;;;;;6.35;3.63;;;;;;;;;;10487484;28;20044;-71
2022/04/03 12:52:43;;;;;;;5.97;3.88;;;;;;;;;;10486808;28;20086;-74
2022/04/03 13:03:02;;;;;;;6.50;4.03;;;;;;;;;;10511965;28;20024;-71
2022/04/03 13:08:09;;;;;;;7.35;4.80;;;;;;;;;;10528610;28;20413;-71
2022/04/03 13:13:18;;;;;;;7.80;4.40;;;;;;;;;;10527480;28;20541;-72
2022/04/03 13:18:19;;;;;;;8.50;4.40;;;;;;;;;;10527805;28;20063;-74
2022/04/03 13:23:20;;;;;;;6.82;4.18;;;;;;;;;;10529043;28;20112;-73
2022/04/03 13:28:20;;;;;;;9.15;5.90;;;;;;;;;;10527088;28;20028;-73
2022/04/03 13:33:20;;;;;;;8.37;4.73;;;;;;;;;;10526009;28;20474;-70
2022/04/03 13:38:20;;;;;;;9.57;5.65;;;;;;;;;;10526141;28;20627;-73
2022/04/03 13:43:21;;;;;;;10.82;6.07;;;;;;;;;;10514129;28;20473;-72
2022/04/03 13:48:21;;;;;;;13.38;6.93;;;;;;;;;;10528770;28;20050;-74
2022/04/03 13:53:21;;;;;;;9.00;5.75;;;;;;;;;;10537234;28;20070;-75
2022/04/03 13:58:24;;;;;;;9.00;6.25;;;;;;;;;;10509741;28;20066;-71
2022/04/03 14:03:26;;;;;;;14.82;6.20;;;;;;;;;;10493735;28;20418;-72
2022/04/03 14:08:27;;;;;;;9.38;6.32;;;;;;;;;;10504821;28;20028;-75
2022/04/03 14:13:28;;;;;;;12.80;5.60;;;;;;;;;;10535489;28;20390;-71
2022/04/03 14:18:28;;;;;;;10.32;5.95;;;;;;;;;;10533401;28;20024;-75
2022/04/03 14:23:32;;;;;;;9.97;5.73;;;;;;;;;;10530296;28;20489;-74
2022/04/03 14:28:33;;;;;;;7.47;6.47;;;;;;;;;;10492413;28;20024;-73
2022/04/03 14:33:34;;;;;;;12.20;7.15;;;;;;;;;;10492293;28;20433;-75
2022/04/03 14:38:34;;;;;;;13.52;7.88;;;;;;;;;;10492303;28;20028;-74
2022/04/03 14:43:34;;;;;;;6.22;4.78;;;;;;;;;;10505470;28;20411;-74
2022/04/03 14:48:34;;;;;;;8.75;5.65;;;;;;;;;;10531875;28;20051;-71
2022/04/03 14:53:35;;;;;;;10.10;6.15;;;;;;;;;;10534573;28;20024;-73
2022/04/03 14:58:35;;;;;;;13.15;7.25;;;;;;;;;;10531813;28;20032;-71
2022/04/03 15:03:36;;;;;;;12.63;7.45;;;;;;;;;;10533465;28;20024;-72
2022/04/03 15:08:37;;;;;;;9.63;6.85;;;;;;;;;;10507687;28;20031;-73
2022/04/03 15:13:37;;;;;;;8.93;5.57;;;;;;;;;;10532333;28;20117;-70
2022/04/03 15:18:39;;;;;;;11.40;6.63;;;;;;;;;;10531170;28;20103;-70
2022/04/03 15:23:42;;;;;;;10.27;6.43;;;;;;;;;;10531675;28;20062;-71
2022/04/03 15:28:42;;;;;;;9.85;5.93;;;;;;;;;;10532777;28;20035;-70
2022/04/03 15:33:43;;;;;;;10.20;6.22;;;;;;;;;;10532130;28;20028;-70
2022/04/03 15:38:43;;;;;;;14.13;8.33;;;;;;;;;;10514985;28;20027;-72
2022/04/03 15:43:43;;;;;;;10.77;7.45;;;;;;;;;;10528783;28;20031;-72
2022/04/03 15:48:44;;;;;;;12.30;7.50;;;;;;;;;;10530895;28;20375;-76
2022/04/03 15:53:44;;;;;;;17.83;7.50;;;;;;;;;;10530776;28;20020;-70
2022/04/03 15:58:45;;;;;;;10.35;7.40;;;;;;;;;;10493626;28;20080;-70
2022/04/03 16:03:46;;;;;;;13.45;7.43;;;;;;;;;;10488457;28;20024;-72
2022/04/03 16:08:46;;;;;;;15.98;8.38;;;;;;;;;;10490165;28;20107;-75
2022/04/03 16:13:46;;;;;;;9.73;7.18;;;;;;;;;;10529788;28;20550;-71
2022/04/03 16:18:47;;;;;;;13.15;6.63;;;;;;;;;;10529972;28;20084;-74
2022/04/03 16:23:48;;;;;;;9.82;6.70;;;;;;;;;;10529139;28;20028;-69
2022/04/03 16:28:48;;;;;;;11.88;7.78;;;;;;;;;;10538606;28;20071;-73
2022/04/03 16:33:53;;;;;;;14.52;7.28;;;;;;;;;;10527526;28;20110;-70
2022/04/03 16:38:56;;;;;;;14.88;7.03;;;;;;;;;;10529081;28;20024;-72
2022/04/03 16:43:57;;;;;;;13.68;8.80;;;;;;;;;;10529317;23;20142;-70
2022/04/03 16:48:59;;;;;;;12.93;7.55;;;;;;;;;;10447073;28;20159;-71
2022/04/03 16:53:59;;;;;;;12.05;7.22;;;;;;;;;;10429310;28;20025;-70
2022/04/03 16:59:00;;;;;;;12.07;6.43;;;;;;;;;;10428619;28;20094;-69
2022/04/03 17:04:01;;;;;;;10.23;6.60;;;;;;;;;;10428685;28;20056;-70
2022/04/03 17:09:02;;;;;;;12.82;8.27;;;;;;;;;;10444967;28;20525;-71
2022/04/03 17:14:03;;;;;;;13.57;8.20;;;;;;;;;;10462079;28;20025;-70
2022/04/03 17:19:05;;;;;;;17.40;9.50;;;;;;;;;;10427658;28;20036;-70
2022/04/03 17:24:05;;;;;;;18.00;9.65;;;;;;;;;;10427641;28;20644;-71
2022/04/03 17:29:05;;;;;;;20.05;11.15;;;;;;;;;;10425518;28;20029;-71
2022/04/03 17:34:06;;;;;;;17.83;11.03;;;;;;;;;;10445854;28;20033;-71
2022/04/03 17:39:08;;;;;;;20.43;11.43;;;;;;;;;;10427521;28;20031;-70
2022/04/03 17:44:11;;;;;;;19.92;11.82;;;;;;;;;;10437694;28;20049;-71
2022/04/03 17:49:12;;;;;;;21.63;13.30;;;;;;;;;;10470106;28;20031;-73
2022/04/03 17:54:12;;;;;;;23.33;13.70;;;;;;;;;;10487804;28;20035;-74
2022/04/03 17:59:13;;;;;;;26.20;12.27;;;;;;;;;;10468414;28;20613;-71
2022/04/03 18:04:14;;;;;;;25.13;13.87;;;;;;;;;;10487199;28;20025;-72
2022/04/03 18:09:15;;;;;;;28.42;14.98;;;;;;;;;;10474033;28;20020;-71
2022/04/03 18:14:17;;;;;;;32.60;15.13;;;;;;;;;;10509373;28;20032;-71
2022/04/03 18:19:17;;;;;;;30.92;16.20;;;;;;;;;;10493662;28;20024;-71
2022/04/03 18:24:17;;;;;;;33.60;15.57;;;;;;;;;;10509070;28;20031;-71
2022/04/03 18:29:18;;;;;;;27.93;15.70;;;;;;;;;;10490497;28;20089;-70
2022/04/03 18:34:18;;;;;;;29.83;15.75;;;;;;;;;;10526651;28;20036;-71
2022/04/03 18:39:19;;;;;;;28.73;15.05;;;;;;;;;;10534778;28;20056;-71
2022/04/03 18:44:21;;;;;;;29.37;14.97;;;;;;;;;;10516128;28;20056;-70
2022/04/03 18:49:22;;;;;;;25.67;15.88;;;;;;;;;;10491114;28;20267;-78
2022/04/03 18:54:22;;;;;;;25.13;13.57;;;;;;;;;;10496017;28;20123;-74
2022/04/03 18:59:24;;;;;;;24.87;13.67;;;;;;;;;;10472131;28;20531;-72
2022/04/03 19:04:24;;;;;;;23.65;12.80;;;;;;;;;;10492895;28;20086;-71
2022/04/03 19:09:25;;;;;;;23.40;12.50;;;;;;;;;;10481439;28;20030;-74
2022/04/03 19:14:25;;;;;;;20.25;12.10;;;;;;;;;;10513990;28;20016;-70
2022/04/03 19:19:26;;;;;;;21.23;11.88;;;;;;;;;;10492018;28;20028;-69
2022/04/03 19:24:28;;;;;;;25.38;11.98;;;;;;;;;;10473424;28;20025;-74
2022/04/03 19:29:30;;;;;;;23.38;13.65;;;;;;;;;;10473698;28;20557;-73
2022/04/03 19:34:31;;;;;;;28.10;14.02;;;;;;;;;;10474586;28;20024;-72
2022/04/03 19:39:32;;;;;;;17.97;11.60;;;;;;;;;;10473599;28;20021;-69
2022/04/03 19:44:33;;;;;;;26.75;14.18;;;;;;;;;;10473496;28;20048;-71
2022/04/03 19:49:33;;;;;;;22.90;13.48;;;;;;;;;;10474325;28;20047;-72
2022/04/03 19:54:34;;;;;;;27.17;14.57;;;;;;;;;;10474245;28;20020;-70
2022/04/03 19:59:35;;;;;;;28.55;14.32;;;;;;;;;;10474023;28;20281;-69
2022/04/03 20:04:37;;;;;;;29.20;15.93;;;;;;;;;;10473559;28;20020;-71
2022/04/03 20:09:37;;;;;;;24.48;14.73;;;;;;;;;;10473168;28;20411;-71
2022/04/03 20:14:37;;;;;;;23.47;14.50;;;;;;;;;;10473166;28;20027;-70
2022/04/03 20:19:38;;;;;;;20.58;12.25;;;;;;;;;;10472918;28;20081;-70
2022/04/03 20:24:39;;;;;;;22.88;14.57;;;;;;;;;;10472860;28;20016;-72
2022/04/03 20:29:39;;;;;;;26.23;16.10;;;;;;;;;;10472758;28;20024;-75
2022/04/03 20:34:39;;;;;;;22.08;15.23;;;;;;;;;;10486164;28;20024;-74
2022/04/03 20:39:40;;;;;;;22.97;14.57;;;;;;;;;;10473881;28;20032;-70
2022/04/03 20:44:40;;;;;;;30.95;14.85;;;;;;;;;;10496834;28;20131;-70
2022/04/03 20:49:40;;;;;;;30.53;15.27;;;;;;;;;;10512685;28;20024;-69
2022/04/03 20:54:41;;;;;;;26.27;15.67;;;;;;;;;;10531856;28;20333;-70
2022/04/03 20:59:41;;;;;;;30.75;15.02;;;;;;;;;;10512376;28;20024;-74
2022/04/03 21:04:41;;;;;;;29.23;15.00;;;;;;;;;;10512712;28;20081;-70
2022/04/03 21:09:42;;;;;;;26.77;15.13;;;;;;;;;;10512672;28;20020;-70
2022/04/03 21:14:42;;;;;;;30.15;15.43;;;;;;;;;;10511800;28;20107;-70
2022/04/03 21:19:43;;;;;;;32.83;16.40;;;;;;;;;;10511738;28;20077;-71
2022/04/03 21:24:43;;;;;;;24.30;15.63;;;;;;;;;;10511849;28;20288;-70
2022/04/03 21:29:44;;;;;;;28.35;16.42;;;;;;;;;;10512183;28;20024;-68
2022/04/03 21:34:44;;;;;;;22.30;15.80;;;;;;;;;;10512301;28;20019;-69
2022/04/03 21:39:44;;;;;;;22.55;14.95;;;;;;;;;;10511649;28;20116;-69
2022/04/03 21:44:44;;;;;;;23.23;14.48;;;;;;;;;;10529839;28;20056;-70
2022/04/03 21:49:45;;;;;;;22.20;13.30;;;;;;;;;;10512087;28;20024;-72
2022/04/03 21:54:45;;;;;;;19.37;12.60;;;;;;;;;;10529635;28;20513;-70
2022/04/03 21:59:45;;;;;;;21.73;12.37;;;;;;;;;;10511715;28;20643;-75
2022/04/03 22:04:46;;;;;;;15.40;9.85;;;;;;;;;;10512215;28;20024;-71
2022/04/03 22:09:46;;;;;;;17.15;12.00;;;;;;;;;;10511724;28;20103;-71
2022/04/03 22:14:46;;;;;;;16.80;10.30;;;;;;;;;;10519643;28;20397;-71
2022/04/03 22:19:47;;;;;;;17.80;9.80;;;;;;;;;;10519743;28;20403;-70
2022/04/03 22:24:47;;;;;;;12.63;8.25;;;;;;;;;;10519373;28;20277;-70
2022/04/03 22:29:47;;;;;;;12.90;9.27;;;;;;;;;;10518806;28;20034;-70
2022/04/03 22:34:48;;;;;;;15.40;9.17;;;;;;;;;;10537157;28;20141;-70
2022/04/03 22:39:48;;;;;;;13.73;9.85;;;;;;;;;;10518489;28;20031;-70
2022/04/03 22:44:49;;;;;;;11.95;8.68;;;;;;;;;;10518303;28;20082;-70
2022/04/03 22:49:49;;;;;;;13.90;9.63;;;;;;;;;;10518429;28;20055;-71
2022/04/03 22:54:49;;;;;;;11.85;8.43;;;;;;;;;;10518146;28;20258;-69
2022/04/03 22:59:49;;;;;;;9.70;6.82;;;;;;;;;;10517851;28;20020;-71
2022/04/03 23:04:50;;;;;;;12.43;7.27;;;;;;;;;;10517753;28;20389;-71
2022/04/03 23:09:50;;;;;;;10.15;8.40;;;;;;;;;;10517914;28;20270;-70
2022/04/03 23:14:53;;;;;;;9.13;6.70;;;;;;;;;;10535546;28;20066;-71
2022/04/03 23:19:54;;;;;;;8.68;6.55;;;;;;;;;;10517064;28;20020;-70
2022/04/03 23:24:54;;;;;;;13.63;7.15;;;;;;;;;;10534844;28;20020;-70
2022/04/03 23:29:55;;;;;;;11.90;8.95;;;;;;;;;;10516832;28;20020;-70
2022/04/03 23:34:55;;;;;;;13.38;9.27;;;;;;;;;;10534178;28;20481;-69
2022/04/03 23:39:55;;;;;;;14.33;8.77;;;;;;;;;;10516614;28;20103;-72
2022/04/03 23:44:55;;;;;;;12.63;9.27;;;;;;;;;;10516644;28;20142;-69
2022/04/03 23:49:57;;;;;;;10.43;8.15;;;;;;;;;;10516039;28;20048;-69
2022/04/03 23:54:57;;;;;;;9.27;6.35;;;;;;;;;;10515621;28;20452;-72
2022/04/03 23:59:57;;;;;;;9.43;5.53;;;;;;;;;;10515148;28;20405;-72
